sensor_id;sensor_type;location;lat;lon;timestamp;P1;durP1;ratioP1;P2;durP2;ratioP2
4430;SDS011;2228;48.140;11.488;2022-07-06T00:01:57;3.60;;;1.60;;
4430;SDS011;2228;48.140;11.488;2022-07-06T00:04:24;3.10;;;1.60;;
4430;SDS011;2228;48.140;11.488;2022-07-06T00:06:51;5.53;;;1.80;;
4430;SDS011;2228;48.140;11.488;2022-07-06T00:09:17;2.58;;;1.75;;
4430;SDS011;2228;48.140;11.488;2022-07-06T00:11:44;2.63;;;1.50;;
4430;SDS011;2228;48.140;11.488;2022-07-06T00:14:13;2.50;;;1.60;;
4430;SDS011;2228;48.140;11.488;2022-07-06T00:16:40;3.15;;;1.70;;
4430;SDS011;2228;48.140;11.488;2022-07-06T00:19:06;4.90;;;1.90;;
4430;SDS011;2228;48.140;11.488;2022-07-06T00:21:33;4.40;;;1.80;;
4430;SDS011;2228;48.140;11.488;2022-07-06T00:24:00;2.78;;;1.42;;
4430;SDS011;2228;48.140;11.488;2022-07-06T00:26:27;5.73;;;1.70;;
4430;SDS011;2228;48.140;11.488;2022-07-06T00:28:54;5.45;;;2.00;;
4430;SDS011;2228;48.140;11.488;2022-07-06T00:31:22;3.28;;;2.00;;
4430;SDS011;2228;48.140;11.488;2022-07-06T00:33:49;3.55;;;1.90;;
4430;SDS011;2228;48.140;11.488;2022-07-06T00:36:16;3.13;;;1.85;;
4430;SDS011;2228;48.140;11.488;2022-07-06T00:38:44;4.88;;;2.10;;
4430;SDS011;2228;48.140;11.488;2022-07-06T00:41:11;3.40;;;1.90;;
4430;SDS011;2228;48.140;11.488;2022-07-06T00:43:49;3.78;;;2.20;;
4430;SDS011;2228;48.140;11.488;2022-07-06T00:46:17;3.05;;;1.83;;
4430;SDS011;2228;48.140;11.488;2022-07-06T00:48:45;3.15;;;1.92;;
4430;SDS011;2228;48.140;11.488;2022-07-06T00:51:12;6.20;;;1.83;;
4430;SDS011;2228;48.140;11.488;2022-07-06T00:53:40;2.60;;;1.80;;
4430;SDS011;2228;48.140;11.488;2022-07-06T00:56:08;3.13;;;1.60;;
4430;SDS011;2228;48.140;11.488;2022-07-06T00:58:35;2.90;;;1.83;;
4430;SDS011;2228;48.140;11.488;2022-07-06T01:01:02;2.75;;;1.88;;
4430;SDS011;2228;48.140;11.488;2022-07-06T01:03:29;3.40;;;1.50;;
4430;SDS011;2228;48.140;11.488;2022-07-06T01:05:57;4.85;;;1.90;;
4430;SDS011;2228;48.140;11.488;2022-07-06T01:08:24;3.22;;;1.67;;
4430;SDS011;2228;48.140;11.488;2022-07-06T01:10:51;5.93;;;1.73;;
4430;SDS011;2228;48.140;11.488;2022-07-06T01:13:18;2.40;;;1.40;;
4430;SDS011;2228;48.140;11.488;2022-07-06T01:15:45;2.45;;;1.50;;
4430;SDS011;2228;48.140;11.488;2022-07-06T01:18:12;3.15;;;1.77;;
4430;SDS011;2228;48.140;11.488;2022-07-06T01:20:41;2.33;;;1.80;;
4430;SDS011;2228;48.140;11.488;2022-07-06T01:23:08;5.45;;;1.80;;
4430;SDS011;2228;48.140;11.488;2022-07-06T01:25:35;7.88;;;1.90;;
4430;SDS011;2228;48.140;11.488;2022-07-06T01:28:03;2.92;;;1.90;;
4430;SDS011;2228;48.140;11.488;2022-07-06T01:30:30;3.13;;;1.98;;
4430;SDS011;2228;48.140;11.488;2022-07-06T01:32:58;4.82;;;1.77;;
4430;SDS011;2228;48.140;11.488;2022-07-06T01:35:25;2.90;;;1.50;;
4430;SDS011;2228;48.140;11.488;2022-07-06T01:37:56;3.65;;;2.00;;
4430;SDS011;2228;48.140;11.488;2022-07-06T01:40:23;4.35;;;1.80;;
4430;SDS011;2228;48.140;11.488;2022-07-06T01:42:50;2.90;;;1.60;;
4430;SDS011;2228;48.140;11.488;2022-07-06T01:45:17;2.60;;;1.80;;
4430;SDS011;2228;48.140;11.488;2022-07-06T01:47:44;4.18;;;1.88;;
4430;SDS011;2228;48.140;11.488;2022-07-06T01:50:11;3.00;;;1.67;;
4430;SDS011;2228;48.140;11.488;2022-07-06T01:52:38;2.10;;;1.70;;
4430;SDS011;2228;48.140;11.488;2022-07-06T01:55:06;4.33;;;1.70;;
4430;SDS011;2228;48.140;11.488;2022-07-06T01:57:34;2.20;;;1.30;;
4430;SDS011;2228;48.140;11.488;2022-07-06T02:00:01;3.70;;;2.00;;
4430;SDS011;2228;48.140;11.488;2022-07-06T02:02:30;2.80;;;1.70;;
4430;SDS011;2228;48.140;11.488;2022-07-06T02:04:57;2.10;;;1.70;;
4430;SDS011;2228;48.140;11.488;2022-07-06T02:07:23;2.40;;;1.58;;
4430;SDS011;2228;48.140;11.488;2022-07-06T02:09:50;2.78;;;1.60;;
4430;SDS011;2228;48.140;11.488;2022-07-06T02:12:18;3.20;;;1.70;;
4430;SDS011;2228;48.140;11.488;2022-07-06T02:14:46;3.97;;;1.70;;
4430;SDS011;2228;48.140;11.488;2022-07-06T02:17:13;3.22;;;2.10;;
4430;SDS011;2228;48.140;11.488;2022-07-06T02:19:40;3.63;;;1.80;;
4430;SDS011;2228;48.140;11.488;2022-07-06T02:22:07;3.20;;;1.50;;
4430;SDS011;2228;48.140;11.488;2022-07-06T02:24:34;1.90;;;1.60;;
4430;SDS011;2228;48.140;11.488;2022-07-06T02:27:00;4.60;;;1.95;;
4430;SDS011;2228;48.140;11.488;2022-07-06T02:29:29;2.85;;;1.55;;
4430;SDS011;2228;48.140;11.488;2022-07-06T02:31:56;2.35;;;1.60;;
4430;SDS011;2228;48.140;11.488;2022-07-06T02:34:22;2.53;;;1.50;;
4430;SDS011;2228;48.140;11.488;2022-07-06T02:36:49;2.03;;;1.20;;
4430;SDS011;2228;48.140;11.488;2022-07-06T02:39:16;3.80;;;1.60;;
4430;SDS011;2228;48.140;11.488;2022-07-06T02:41:43;1.90;;;1.70;;
4430;SDS011;2228;48.140;11.488;2022-07-06T02:44:09;1.60;;;1.50;;
4430;SDS011;2228;48.140;11.488;2022-07-06T02:46:37;2.63;;;1.67;;
4430;SDS011;2228;48.140;11.488;2022-07-06T02:49:04;1.67;;;1.42;;
4430;SDS011;2228;48.140;11.488;2022-07-06T02:51:31;2.00;;;1.60;;
4430;SDS011;2228;48.140;11.488;2022-07-06T02:53:58;1.90;;;1.65;;
4430;SDS011;2228;48.140;11.488;2022-07-06T02:56:24;1.80;;;1.60;;
4430;SDS011;2228;48.140;11.488;2022-07-06T02:58:53;3.60;;;1.67;;
4430;SDS011;2228;48.140;11.488;2022-07-06T03:01:19;3.55;;;1.80;;
4430;SDS011;2228;48.140;11.488;2022-07-06T03:03:48;2.20;;;1.90;;
4430;SDS011;2228;48.140;11.488;2022-07-06T03:06:14;2.47;;;1.80;;
4430;SDS011;2228;48.140;11.488;2022-07-06T03:08:41;2.53;;;1.70;;
4430;SDS011;2228;48.140;11.488;2022-07-06T03:11:08;2.40;;;1.70;;
4430;SDS011;2228;48.140;11.488;2022-07-06T03:13:35;2.47;;;1.70;;
4430;SDS011;2228;48.140;11.488;2022-07-06T03:16:02;2.10;;;1.90;;
4430;SDS011;2228;48.140;11.488;2022-07-06T03:18:29;2.78;;;1.88;;
4430;SDS011;2228;48.140;11.488;2022-07-06T03:20:57;2.20;;;1.90;;
4430;SDS011;2228;48.140;11.488;2022-07-06T03:23:24;3.15;;;2.10;;
4430;SDS011;2228;48.140;11.488;2022-07-06T03:25:51;4.57;;;1.88;;
4430;SDS011;2228;48.140;11.488;2022-07-06T03:28:17;4.35;;;1.80;;
4430;SDS011;2228;48.140;11.488;2022-07-06T03:30:44;2.17;;;1.88;;
4430;SDS011;2228;48.140;11.488;2022-07-06T03:33:11;2.50;;;1.90;;
4430;SDS011;2228;48.140;11.488;2022-07-06T03:35:38;2.20;;;1.77;;
4430;SDS011;2228;48.140;11.488;2022-07-06T03:38:06;3.47;;;2.20;;
4430;SDS011;2228;48.140;11.488;2022-07-06T03:40:33;4.07;;;2.50;;
4430;SDS011;2228;48.140;11.488;2022-07-06T03:43:00;2.80;;;1.92;;
4430;SDS011;2228;48.140;11.488;2022-07-06T03:45:27;2.38;;;2.00;;
4430;SDS011;2228;48.140;11.488;2022-07-06T03:47:53;4.00;;;2.00;;
4430;SDS011;2228;48.140;11.488;2022-07-06T03:50:20;4.20;;;2.40;;
4430;SDS011;2228;48.140;11.488;2022-07-06T03:52:47;2.70;;;2.10;;
4430;SDS011;2228;48.140;11.488;2022-07-06T03:55:15;3.80;;;1.70;;
4430;SDS011;2228;48.140;11.488;2022-07-06T03:57:42;2.10;;;1.60;;
4430;SDS011;2228;48.140;11.488;2022-07-06T04:00:09;2.40;;;1.70;;
4430;SDS011;2228;48.140;11.488;2022-07-06T04:02:37;3.38;;;2.00;;
4430;SDS011;2228;48.140;11.488;2022-07-06T04:05:04;1.80;;;1.60;;
4430;SDS011;2228;48.140;11.488;2022-07-06T04:07:31;2.20;;;1.90;;
4430;SDS011;2228;48.140;11.488;2022-07-06T04:09:58;3.57;;;1.80;;
4430;SDS011;2228;48.140;11.488;2022-07-06T04:12:27;4.95;;;2.00;;
4430;SDS011;2228;48.140;11.488;2022-07-06T04:14:55;2.35;;;1.70;;
4430;SDS011;2228;48.140;11.488;2022-07-06T04:17:22;2.60;;;2.10;;
4430;SDS011;2228;48.140;11.488;2022-07-06T04:20:07;3.08;;;1.95;;
4430;SDS011;2228;48.140;11.488;2022-07-06T04:22:36;2.53;;;1.83;;
4430;SDS011;2228;48.140;11.488;2022-07-06T04:25:04;4.70;;;2.00;;
4430;SDS011;2228;48.140;11.488;2022-07-06T04:27:45;2.30;;;2.00;;
4430;SDS011;2228;48.140;11.488;2022-07-06T04:30:12;3.47;;;2.10;;
4430;SDS011;2228;48.140;11.488;2022-07-06T04:32:39;3.03;;;2.00;;
4430;SDS011;2228;48.140;11.488;2022-07-06T04:35:06;2.53;;;2.20;;
4430;SDS011;2228;48.140;11.488;2022-07-06T04:37:34;3.90;;;2.28;;
4430;SDS011;2228;48.140;11.488;2022-07-06T04:40:01;3.03;;;2.08;;
4430;SDS011;2228;48.140;11.488;2022-07-06T04:42:28;4.95;;;2.10;;
4430;SDS011;2228;48.140;11.488;2022-07-06T04:44:56;4.05;;;2.10;;
4430;SDS011;2228;48.140;11.488;2022-07-06T04:47:23;2.97;;;1.80;;
4430;SDS011;2228;48.140;11.488;2022-07-06T04:49:50;5.37;;;2.10;;
4430;SDS011;2228;48.140;11.488;2022-07-06T04:52:17;4.50;;;2.10;;
4430;SDS011;2228;48.140;11.488;2022-07-06T04:54:44;3.50;;;1.90;;
4430;SDS011;2228;48.140;11.488;2022-07-06T04:57:10;3.10;;;2.07;;
4430;SDS011;2228;48.140;11.488;2022-07-06T04:59:37;3.50;;;2.05;;
4430;SDS011;2228;48.140;11.488;2022-07-06T05:02:07;4.90;;;2.00;;
4430;SDS011;2228;48.140;11.488;2022-07-06T05:04:34;4.75;;;1.88;;
4430;SDS011;2228;48.140;11.488;2022-07-06T05:07:01;5.23;;;2.40;;
4430;SDS011;2228;48.140;11.488;2022-07-06T05:09:29;5.20;;;2.20;;
4430;SDS011;2228;48.140;11.488;2022-07-06T05:11:55;3.60;;;1.73;;
4430;SDS011;2228;48.140;11.488;2022-07-06T05:14:22;2.95;;;1.73;;
4430;SDS011;2228;48.140;11.488;2022-07-06T05:16:49;6.97;;;2.00;;
4430;SDS011;2228;48.140;11.488;2022-07-06T05:19:18;1.95;;;1.55;;
4430;SDS011;2228;48.140;11.488;2022-07-06T05:21:44;5.97;;;1.52;;
4430;SDS011;2228;48.140;11.488;2022-07-06T05:24:11;2.00;;;1.40;;
4430;SDS011;2228;48.140;11.488;2022-07-06T05:26:38;2.30;;;1.40;;
4430;SDS011;2228;48.140;11.488;2022-07-06T05:29:05;3.20;;;1.60;;
4430;SDS011;2228;48.140;11.488;2022-07-06T05:31:32;2.10;;;1.33;;
4430;SDS011;2228;48.140;11.488;2022-07-06T05:33:59;1.75;;;1.40;;
4430;SDS011;2228;48.140;11.488;2022-07-06T05:36:28;3.23;;;1.40;;
4430;SDS011;2228;48.140;11.488;2022-07-06T05:38:54;4.28;;;1.50;;
4430;SDS011;2228;48.140;11.488;2022-07-06T05:41:21;1.90;;;1.55;;
4430;SDS011;2228;48.140;11.488;2022-07-06T05:43:48;4.05;;;1.80;;
4430;SDS011;2228;48.140;11.488;2022-07-06T05:46:15;3.97;;;1.80;;
4430;SDS011;2228;48.140;11.488;2022-07-06T05:49:07;2.10;;;1.30;;
4430;SDS011;2228;48.140;11.488;2022-07-06T05:51:53;2.20;;;1.50;;
4430;SDS011;2228;48.140;11.488;2022-07-06T05:54:20;3.23;;;1.63;;
4430;SDS011;2228;48.140;11.488;2022-07-06T05:56:47;3.63;;;1.80;;
4430;SDS011;2228;48.140;11.488;2022-07-06T05:59:14;4.53;;;1.83;;
4430;SDS011;2228;48.140;11.488;2022-07-06T06:01:40;2.15;;;1.48;;
4430;SDS011;2228;48.140;11.488;2022-07-06T06:04:07;2.30;;;1.50;;
4430;SDS011;2228;48.140;11.488;2022-07-06T06:06:34;3.38;;;1.80;;
4430;SDS011;2228;48.140;11.488;2022-07-06T06:09:02;3.92;;;1.40;;
4430;SDS011;2228;48.140;11.488;2022-07-06T06:11:29;3.63;;;1.60;;
4430;SDS011;2228;48.140;11.488;2022-07-06T06:13:56;4.72;;;1.70;;
4430;SDS011;2228;48.140;11.488;2022-07-06T06:16:23;3.20;;;1.60;;
4430;SDS011;2228;48.140;11.488;2022-07-06T06:18:50;3.80;;;1.63;;
4430;SDS011;2228;48.140;11.488;2022-07-06T06:21:17;2.73;;;1.60;;
4430;SDS011;2228;48.140;11.488;2022-07-06T06:23:44;6.30;;;1.77;;
4430;SDS011;2228;48.140;11.488;2022-07-06T06:26:12;2.97;;;1.88;;
4430;SDS011;2228;48.140;11.488;2022-07-06T06:28:39;2.05;;;1.55;;
4430;SDS011;2228;48.140;11.488;2022-07-06T06:31:06;4.55;;;2.00;;
4430;SDS011;2228;48.140;11.488;2022-07-06T06:33:33;2.72;;;1.60;;
4430;SDS011;2228;48.140;11.488;2022-07-06T06:36:01;4.47;;;2.08;;
4430;SDS011;2228;48.140;11.488;2022-07-06T06:38:28;3.50;;;2.00;;
4430;SDS011;2228;48.140;11.488;2022-07-06T06:40:54;3.35;;;1.63;;
4430;SDS011;2228;48.140;11.488;2022-07-06T06:43:24;4.00;;;1.92;;
4430;SDS011;2228;48.140;11.488;2022-07-06T06:45:51;3.97;;;1.60;;
4430;SDS011;2228;48.140;11.488;2022-07-06T06:48:18;3.22;;;1.90;;
4430;SDS011;2228;48.140;11.488;2022-07-06T06:50:45;2.60;;;2.03;;
4430;SDS011;2228;48.140;11.488;2022-07-06T06:53:12;5.00;;;1.80;;
4430;SDS011;2228;48.140;11.488;2022-07-06T06:55:39;2.40;;;1.77;;
4430;SDS011;2228;48.140;11.488;2022-07-06T06:58:06;2.83;;;1.60;;
4430;SDS011;2228;48.140;11.488;2022-07-06T07:00:34;3.70;;;1.80;;
4430;SDS011;2228;48.140;11.488;2022-07-06T07:03:01;2.97;;;1.98;;
4430;SDS011;2228;48.140;11.488;2022-07-06T07:05:28;6.40;;;1.98;;
4430;SDS011;2228;48.140;11.488;2022-07-06T07:07:55;6.28;;;2.08;;
4430;SDS011;2228;48.140;11.488;2022-07-06T07:10:24;2.72;;;1.92;;
4430;SDS011;2228;48.140;11.488;2022-07-06T07:12:51;3.70;;;1.73;;
4430;SDS011;2228;48.140;11.488;2022-07-06T07:15:18;2.92;;;1.85;;
4430;SDS011;2228;48.140;11.488;2022-07-06T07:17:46;3.72;;;2.00;;
4430;SDS011;2228;48.140;11.488;2022-07-06T07:20:13;4.88;;;1.90;;
4430;SDS011;2228;48.140;11.488;2022-07-06T07:22:40;7.80;;;2.28;;
4430;SDS011;2228;48.140;11.488;2022-07-06T07:25:07;4.75;;;2.00;;
4430;SDS011;2228;48.140;11.488;2022-07-06T07:27:34;4.70;;;1.90;;
4430;SDS011;2228;48.140;11.488;2022-07-06T07:30:01;2.92;;;2.00;;
4430;SDS011;2228;48.140;11.488;2022-07-06T07:32:28;2.40;;;1.60;;
4430;SDS011;2228;48.140;11.488;2022-07-06T07:34:57;2.72;;;1.70;;
4430;SDS011;2228;48.140;11.488;2022-07-06T07:37:23;2.00;;;1.50;;
4430;SDS011;2228;48.140;11.488;2022-07-06T07:39:50;5.00;;;1.80;;
4430;SDS011;2228;48.140;11.488;2022-07-06T07:42:17;2.75;;;1.70;;
4430;SDS011;2228;48.140;11.488;2022-07-06T07:44:44;2.85;;;1.60;;
4430;SDS011;2228;48.140;11.488;2022-07-06T07:47:11;2.97;;;1.90;;
4430;SDS011;2228;48.140;11.488;2022-07-06T07:49:38;7.18;;;2.13;;
4430;SDS011;2228;48.140;11.488;2022-07-06T07:52:06;2.35;;;1.60;;
4430;SDS011;2228;48.140;11.488;2022-07-06T07:54:34;3.20;;;1.80;;
4430;SDS011;2228;48.140;11.488;2022-07-06T07:57:01;5.70;;;1.90;;
4430;SDS011;2228;48.140;11.488;2022-07-06T07:59:28;4.20;;;1.90;;
4430;SDS011;2228;48.140;11.488;2022-07-06T08:01:55;3.15;;;1.80;;
4430;SDS011;2228;48.140;11.488;2022-07-06T08:04:22;2.95;;;1.65;;
4430;SDS011;2228;48.140;11.488;2022-07-06T08:06:49;6.00;;;1.83;;
4430;SDS011;2228;48.140;11.488;2022-07-06T08:09:17;3.30;;;2.10;;
4430;SDS011;2228;48.140;11.488;2022-07-06T08:11:44;2.75;;;1.77;;
4430;SDS011;2228;48.140;11.488;2022-07-06T08:14:11;3.60;;;1.60;;
4430;SDS011;2228;48.140;11.488;2022-07-06T08:16:39;3.58;;;1.70;;
4430;SDS011;2228;48.140;11.488;2022-07-06T08:19:06;2.90;;;1.90;;
4430;SDS011;2228;48.140;11.488;2022-07-06T08:21:34;5.45;;;1.90;;
4430;SDS011;2228;48.140;11.488;2022-07-06T08:24:01;4.35;;;1.80;;
4430;SDS011;2228;48.140;11.488;2022-07-06T08:26:29;8.50;;;2.20;;
4430;SDS011;2228;48.140;11.488;2022-07-06T08:28:56;5.72;;;2.13;;
4430;SDS011;2228;48.140;11.488;2022-07-06T08:31:24;4.18;;;1.90;;
4430;SDS011;2228;48.140;11.488;2022-07-06T08:33:52;5.05;;;2.00;;
4430;SDS011;2228;48.140;11.488;2022-07-06T08:36:19;4.17;;;2.07;;
4430;SDS011;2228;48.140;11.488;2022-07-06T08:38:46;5.05;;;2.30;;
4430;SDS011;2228;48.140;11.488;2022-07-06T08:41:13;5.78;;;2.58;;
4430;SDS011;2228;48.140;11.488;2022-07-06T08:43:42;2.10;;;1.40;;
4430;SDS011;2228;48.140;11.488;2022-07-06T08:46:09;5.60;;;1.80;;
4430;SDS011;2228;48.140;11.488;2022-07-06T08:48:39;5.55;;;2.40;;
4430;SDS011;2228;48.140;11.488;2022-07-06T08:51:07;3.07;;;2.00;;
4430;SDS011;2228;48.140;11.488;2022-07-06T08:53:34;3.47;;;1.80;;
4430;SDS011;2228;48.140;11.488;2022-07-06T08:56:02;2.95;;;1.95;;
4430;SDS011;2228;48.140;11.488;2022-07-06T08:58:29;3.72;;;2.10;;
4430;SDS011;2228;48.140;11.488;2022-07-06T09:00:59;4.03;;;1.90;;
4430;SDS011;2228;48.140;11.488;2022-07-06T09:03:27;5.30;;;2.20;;
4430;SDS011;2228;48.140;11.488;2022-07-06T09:05:56;3.83;;;2.17;;
4430;SDS011;2228;48.140;11.488;2022-07-06T09:08:27;5.60;;;2.20;;
4430;SDS011;2228;48.140;11.488;2022-07-06T09:10:56;5.47;;;1.90;;
4430;SDS011;2228;48.140;11.488;2022-07-06T09:13:23;4.40;;;2.20;;
4430;SDS011;2228;48.140;11.488;2022-07-06T09:15:50;3.35;;;2.00;;
4430;SDS011;2228;48.140;11.488;2022-07-06T09:18:18;2.50;;;1.80;;
4430;SDS011;2228;48.140;11.488;2022-07-06T09:20:47;8.00;;;2.10;;
4430;SDS011;2228;48.140;11.488;2022-07-06T09:23:15;8.10;;;2.65;;
4430;SDS011;2228;48.140;11.488;2022-07-06T09:25:42;4.00;;;2.00;;
4430;SDS011;2228;48.140;11.488;2022-07-06T09:28:13;4.57;;;2.67;;
4430;SDS011;2228;48.140;11.488;2022-07-06T09:30:40;3.40;;;2.05;;
4430;SDS011;2228;48.140;11.488;2022-07-06T09:33:07;4.97;;;2.00;;
4430;SDS011;2228;48.140;11.488;2022-07-06T09:35:37;4.90;;;2.00;;
4430;SDS011;2228;48.140;11.488;2022-07-06T09:38:05;4.30;;;2.00;;
4430;SDS011;2228;48.140;11.488;2022-07-06T09:40:34;5.00;;;2.00;;
4430;SDS011;2228;48.140;11.488;2022-07-06T09:43:12;3.78;;;1.70;;
4430;SDS011;2228;48.140;11.488;2022-07-06T09:45:41;2.70;;;1.70;;
4430;SDS011;2228;48.140;11.488;2022-07-06T09:48:10;8.23;;;2.10;;
4430;SDS011;2228;48.140;11.488;2022-07-06T09:50:40;2.83;;;2.00;;
4430;SDS011;2228;48.140;11.488;2022-07-06T09:53:08;3.85;;;2.20;;
4430;SDS011;2228;48.140;11.488;2022-07-06T09:55:35;3.35;;;1.90;;
4430;SDS011;2228;48.140;11.488;2022-07-06T09:58:02;3.67;;;2.35;;
4430;SDS011;2228;48.140;11.488;2022-07-06T10:00:29;3.92;;;2.30;;
4430;SDS011;2228;48.140;11.488;2022-07-06T10:02:56;5.35;;;1.80;;
4430;SDS011;2228;48.140;11.488;2022-07-06T10:05:24;3.88;;;2.30;;
4430;SDS011;2228;48.140;11.488;2022-07-06T10:07:57;4.40;;;2.58;;
4430;SDS011;2228;48.140;11.488;2022-07-06T10:10:25;4.03;;;2.30;;
4430;SDS011;2228;48.140;11.488;2022-07-06T10:12:53;5.38;;;2.70;;
4430;SDS011;2228;48.140;11.488;2022-07-06T10:15:21;5.53;;;2.40;;
4430;SDS011;2228;48.140;11.488;2022-07-06T10:17:49;3.70;;;1.80;;
4430;SDS011;2228;48.140;11.488;2022-07-06T10:20:17;4.00;;;1.90;;
4430;SDS011;2228;48.140;11.488;2022-07-06T10:22:44;3.03;;;1.95;;
4430;SDS011;2228;48.140;11.488;2022-07-06T10:25:14;2.47;;;1.60;;
4430;SDS011;2228;48.140;11.488;2022-07-06T10:27:42;3.60;;;1.70;;
4430;SDS011;2228;48.140;11.488;2022-07-06T10:30:11;2.70;;;1.70;;
4430;SDS011;2228;48.140;11.488;2022-07-06T10:32:38;2.47;;;1.48;;
4430;SDS011;2228;48.140;11.488;2022-07-06T10:35:07;4.07;;;1.50;;
4430;SDS011;2228;48.140;11.488;2022-07-06T10:37:34;2.70;;;1.50;;
4430;SDS011;2228;48.140;11.488;2022-07-06T10:40:01;2.72;;;1.80;;
4430;SDS011;2228;48.140;11.488;2022-07-06T10:42:48;3.92;;;1.83;;
4430;SDS011;2228;48.140;11.488;2022-07-06T10:45:20;3.47;;;1.50;;
4430;SDS011;2228;48.140;11.488;2022-07-06T10:48:16;4.28;;;1.98;;
4430;SDS011;2228;48.140;11.488;2022-07-06T10:50:46;4.35;;;1.70;;
4430;SDS011;2228;48.140;11.488;2022-07-06T10:53:14;3.80;;;1.70;;
4430;SDS011;2228;48.140;11.488;2022-07-06T10:55:43;2.70;;;1.90;;
4430;SDS011;2228;48.140;11.488;2022-07-06T10:58:12;3.45;;;1.63;;
4430;SDS011;2228;48.140;11.488;2022-07-06T11:00:49;5.63;;;1.60;;
4430;SDS011;2228;48.140;11.488;2022-07-06T11:03:36;1.73;;;1.25;;
4430;SDS011;2228;48.140;11.488;2022-07-06T11:06:09;3.88;;;1.60;;
4430;SDS011;2228;48.140;11.488;2022-07-06T11:08:44;4.50;;;1.77;;
4430;SDS011;2228;48.140;11.488;2022-07-06T11:11:13;3.28;;;1.50;;
4430;SDS011;2228;48.140;11.488;2022-07-06T11:13:50;4.95;;;1.80;;
4430;SDS011;2228;48.140;11.488;2022-07-06T11:16:19;3.23;;;1.70;;
4430;SDS011;2228;48.140;11.488;2022-07-06T11:18:48;3.70;;;1.30;;
4430;SDS011;2228;48.140;11.488;2022-07-06T11:21:31;3.13;;;1.60;;
4430;SDS011;2228;48.140;11.488;2022-07-06T11:24:00;5.43;;;1.70;;
4430;SDS011;2228;48.140;11.488;2022-07-06T11:26:27;2.50;;;1.92;;
4430;SDS011;2228;48.140;11.488;2022-07-06T11:28:55;3.45;;;2.10;;
4430;SDS011;2228;48.140;11.488;2022-07-06T11:31:24;2.72;;;1.55;;
4430;SDS011;2228;48.140;11.488;2022-07-06T11:33:51;2.38;;;1.50;;
4430;SDS011;2228;48.140;11.488;2022-07-06T11:36:18;3.10;;;1.70;;
4430;SDS011;2228;48.140;11.488;2022-07-06T11:38:46;1.65;;;1.30;;
4430;SDS011;2228;48.140;11.488;2022-07-06T11:41:15;5.93;;;1.60;;
4430;SDS011;2228;48.140;11.488;2022-07-06T11:43:43;4.38;;;1.70;;
4430;SDS011;2228;48.140;11.488;2022-07-06T11:46:22;3.92;;;1.80;;
4430;SDS011;2228;48.140;11.488;2022-07-06T11:48:51;4.97;;;2.20;;
4430;SDS011;2228;48.140;11.488;2022-07-06T11:51:20;3.83;;;1.85;;
4430;SDS011;2228;48.140;11.488;2022-07-06T11:53:48;2.90;;;1.60;;
4430;SDS011;2228;48.140;11.488;2022-07-06T11:56:16;4.35;;;1.70;;
4430;SDS011;2228;48.140;11.488;2022-07-06T11:58:44;3.05;;;1.50;;
4430;SDS011;2228;48.140;11.488;2022-07-06T12:01:13;2.08;;;1.40;;
4430;SDS011;2228;48.140;11.488;2022-07-06T12:03:42;2.40;;;1.43;;
4430;SDS011;2228;48.140;11.488;2022-07-06T12:06:12;3.93;;;1.40;;
4430;SDS011;2228;48.140;11.488;2022-07-06T12:08:42;3.28;;;1.55;;
4430;SDS011;2228;48.140;11.488;2022-07-06T12:11:10;2.20;;;1.40;;
4430;SDS011;2228;48.140;11.488;2022-07-06T12:13:37;3.50;;;1.50;;
4430;SDS011;2228;48.140;11.488;2022-07-06T12:16:09;4.05;;;1.40;;
4430;SDS011;2228;48.140;11.488;2022-07-06T12:18:37;3.40;;;1.60;;
4430;SDS011;2228;48.140;11.488;2022-07-06T12:21:06;2.55;;;1.20;;
4430;SDS011;2228;48.140;11.488;2022-07-06T12:23:40;1.92;;;1.50;;
4430;SDS011;2228;48.140;11.488;2022-07-06T12:26:09;2.28;;;1.50;;
4430;SDS011;2228;48.140;11.488;2022-07-06T12:28:36;2.20;;;1.30;;
4430;SDS011;2228;48.140;11.488;2022-07-06T12:31:03;2.20;;;1.73;;
4430;SDS011;2228;48.140;11.488;2022-07-06T12:33:30;3.83;;;1.50;;
4430;SDS011;2228;48.140;11.488;2022-07-06T12:35:57;2.88;;;1.52;;
4430;SDS011;2228;48.140;11.488;2022-07-06T12:38:36;3.63;;;1.45;;
4430;SDS011;2228;48.140;11.488;2022-07-06T12:41:10;4.25;;;2.00;;
4430;SDS011;2228;48.140;11.488;2022-07-06T12:43:48;2.20;;;1.90;;
4430;SDS011;2228;48.140;11.488;2022-07-06T12:46:27;2.80;;;1.30;;
4430;SDS011;2228;48.140;11.488;2022-07-06T12:48:55;2.25;;;1.40;;
4430;SDS011;2228;48.140;11.488;2022-07-06T12:51:24;2.78;;;1.23;;
4430;SDS011;2228;48.140;11.488;2022-07-06T12:53:51;1.90;;;1.20;;
4430;SDS011;2228;48.140;11.488;2022-07-06T12:56:19;2.30;;;1.20;;
4430;SDS011;2228;48.140;11.488;2022-07-06T12:58:58;2.67;;;1.30;;
4430;SDS011;2228;48.140;11.488;2022-07-06T13:01:25;1.92;;;1.23;;
4430;SDS011;2228;48.140;11.488;2022-07-06T13:03:56;2.75;;;1.50;;
4430;SDS011;2228;48.140;11.488;2022-07-06T13:06:28;5.65;;;1.50;;
4430;SDS011;2228;48.140;11.488;2022-07-06T13:08:56;4.38;;;1.63;;
4430;SDS011;2228;48.140;11.488;2022-07-06T13:11:23;4.10;;;1.50;;
4430;SDS011;2228;48.140;11.488;2022-07-06T13:13:50;1.52;;;1.20;;
4430;SDS011;2228;48.140;11.488;2022-07-06T13:16:16;2.05;;;1.60;;
4430;SDS011;2228;48.140;11.488;2022-07-06T13:18:43;1.65;;;1.17;;
4430;SDS011;2228;48.140;11.488;2022-07-06T13:21:10;1.97;;;1.20;;
4430;SDS011;2228;48.140;11.488;2022-07-06T13:23:38;2.83;;;1.50;;
4430;SDS011;2228;48.140;11.488;2022-07-06T13:26:05;2.80;;;1.30;;
4430;SDS011;2228;48.140;11.488;2022-07-06T13:28:33;2.38;;;1.10;;
4430;SDS011;2228;48.140;11.488;2022-07-06T13:30:59;3.22;;;1.15;;
4430;SDS011;2228;48.140;11.488;2022-07-06T13:33:26;1.50;;;1.40;;
4430;SDS011;2228;48.140;11.488;2022-07-06T13:35:53;5.35;;;1.50;;
4430;SDS011;2228;48.140;11.488;2022-07-06T13:38:20;1.47;;;1.20;;
4430;SDS011;2228;48.140;11.488;2022-07-06T13:40:48;2.38;;;1.33;;
4430;SDS011;2228;48.140;11.488;2022-07-06T13:43:15;3.80;;;1.45;;
4430;SDS011;2228;48.140;11.488;2022-07-06T13:45:42;5.15;;;1.55;;
4430;SDS011;2228;48.140;11.488;2022-07-06T13:48:08;2.10;;;1.45;;
4430;SDS011;2228;48.140;11.488;2022-07-06T13:50:35;4.88;;;1.60;;
4430;SDS011;2228;48.140;11.488;2022-07-06T13:53:02;2.25;;;1.30;;
4430;SDS011;2228;48.140;11.488;2022-07-06T13:55:29;2.90;;;1.40;;
4430;SDS011;2228;48.140;11.488;2022-07-06T13:57:57;2.42;;;1.30;;
4430;SDS011;2228;48.140;11.488;2022-07-06T14:00:24;3.38;;;1.60;;
4430;SDS011;2228;48.140;11.488;2022-07-06T14:02:51;2.50;;;1.45;;
4430;SDS011;2228;48.140;11.488;2022-07-06T14:05:18;2.85;;;1.30;;
4430;SDS011;2228;48.140;11.488;2022-07-06T14:07:45;2.10;;;1.50;;
4430;SDS011;2228;48.140;11.488;2022-07-06T14:10:12;2.05;;;1.35;;
4430;SDS011;2228;48.140;11.488;2022-07-06T14:12:38;3.40;;;1.30;;
4430;SDS011;2228;48.140;11.488;2022-07-06T14:15:07;3.10;;;1.10;;
4430;SDS011;2228;48.140;11.488;2022-07-06T14:17:34;3.65;;;1.02;;
4430;SDS011;2228;48.140;11.488;2022-07-06T14:20:01;3.85;;;1.38;;
4430;SDS011;2228;48.140;11.488;2022-07-06T14:22:28;3.83;;;1.42;;
4430;SDS011;2228;48.140;11.488;2022-07-06T14:24:55;2.20;;;1.30;;
4430;SDS011;2228;48.140;11.488;2022-07-06T14:27:22;2.50;;;1.30;;
4430;SDS011;2228;48.140;11.488;2022-07-06T14:29:48;1.70;;;1.20;;
4430;SDS011;2228;48.140;11.488;2022-07-06T14:32:17;2.20;;;1.50;;
4430;SDS011;2228;48.140;11.488;2022-07-06T14:34:43;3.53;;;1.50;;
4430;SDS011;2228;48.140;11.488;2022-07-06T14:37:10;4.78;;;1.40;;
4430;SDS011;2228;48.140;11.488;2022-07-06T14:39:37;5.13;;;1.10;;
4430;SDS011;2228;48.140;11.488;2022-07-06T14:42:04;2.80;;;1.50;;
4430;SDS011;2228;48.140;11.488;2022-07-06T14:44:31;5.00;;;1.57;;
4430;SDS011;2228;48.140;11.488;2022-07-06T14:46:58;6.43;;;1.45;;
4430;SDS011;2228;48.140;11.488;2022-07-06T14:49:27;2.90;;;1.27;;
4430;SDS011;2228;48.140;11.488;2022-07-06T14:51:54;1.50;;;1.30;;
4430;SDS011;2228;48.140;11.488;2022-07-06T14:54:22;3.70;;;1.30;;
4430;SDS011;2228;48.140;11.488;2022-07-06T14:56:49;2.95;;;1.40;;
4430;SDS011;2228;48.140;11.488;2022-07-06T14:59:16;1.70;;;1.20;;
4430;SDS011;2228;48.140;11.488;2022-07-06T15:01:43;2.90;;;1.30;;
4430;SDS011;2228;48.140;11.488;2022-07-06T15:04:10;6.03;;;1.40;;
4430;SDS011;2228;48.140;11.488;2022-07-06T15:06:38;1.67;;;1.10;;